Погода Джамалпурна 2 недели

Дакка, Бангладеш

02 - 15 марта
  • 02марта
    Сегодня
    +15°
    +28°
    Ясно и безоблачно
    ВремяПогодаТемператураВлажностьДавлениеВетер, м/сВероятность осадков
    00:00Ясно и безоблачно+19°C71 %760 мм0.4 м/с2 %
    03:00Ясно и безоблачно+17°C83 %759 мм1.3 м/с2 %
    06:00Ясно и безоблачно+15°C91 %759 мм2.1 м/с2 %
    09:00Ясно и безоблачно+21°C68 %761 мм0.7 м/с2 %
    12:00Ясно и безоблачно+26°C42 %759 мм0.9 м/с2 %
    15:00Ясно и безоблачно+27°C40 %757 мм1.6 м/с2 %
    18:00Ясно и безоблачно+25°C53 %757 мм0.5 м/с2 %
    21:00Ясно и безоблачно+19°C73 %759 мм2.3 м/с2 %
  • 03марта
    Воскресенье
    +18°
    +29°
    Ясно и безоблачно
    ВремяПогодаТемператураВлажностьДавлениеВетер, м/сВероятность осадков
    00:00Ясно и безоблачно+20°C73 %759 мм1.3 м/с2 %
    03:00Ясно и безоблачно+20°C75 %757 мм0.2 м/с2 %
    06:00Ясно и безоблачно+16°C89 %758 мм1.3 м/с2 %
    09:00Ясно и безоблачно+22°C67 %760 мм0.3 м/с2 %
    12:00Ясно и безоблачно+27°C47 %759 мм0.5 м/с2 %
    15:00Ясно и безоблачно+29°C41 %756 мм1.9 м/с2 %
    18:00Ясно и безоблачно+24°C64 %756 мм2.1 м/с2 %
    21:00Практически безоблачно+21°C68 %758 мм2.0 м/с2 %
  • 04марта
    Понедельник
    +18°
    +30°
    Ясно и безоблачно
    ВремяПогодаТемператураВлажностьДавлениеВетер, м/сВероятность осадков
    00:00Небольшая облачность+21°C74 %757 мм1.2 м/с2 %
    03:00Пасмурно, сплошная облачность+21°C82 %757 мм0.5 м/с2 %
    06:00Пасмурно, сплошная облачность+19°C83 %757 мм1.6 м/с16 %
    09:00Ясно и безоблачно+23°C69 %759 мм1.2 м/с3 %
    12:00Ясно и безоблачно+27°C52 %758 мм2.3 м/с3 %
    15:00Ясно и безоблачно+29°C47 %756 мм2.7 м/с5 %
    18:00Ясно и безоблачно+26°C59 %756 мм2.5 м/с2 %
    21:00Ясно и безоблачно+22°C73 %757 мм2.6 м/с2 %
  • 05марта
    Вторник
    +15°
    +29°
    Ясно и безоблачно
    ВремяПогодаТемператураВлажностьДавлениеВетер, м/сВероятность осадков
    00:00Ясно и безоблачно+21°C80 %757 мм2.7 м/с2 %
    03:00Ясно и безоблачно+21°C79 %757 мм2.4 м/с2 %
    06:00Ясно и безоблачно+19°C78 %758 мм2.9 м/с2 %
    09:00Ясно и безоблачно+23°C58 %760 мм2.8 м/с2 %
    12:00Ясно и безоблачно+27°C43 %759 мм4.2 м/с2 %
    15:00Ясно и безоблачно+29°C34 %757 мм4.9 м/с2 %
    18:00Ясно и безоблачно+25°C48 %756 мм2.3 м/с2 %
    21:00Ясно и безоблачно+21°C64 %758 мм2.3 м/с2 %
  • 06марта
    Среда
    +13°
    +27°
    Ясно и безоблачно
    ВремяПогодаТемператураВлажностьДавлениеВетер, м/сВероятность осадков
    00:00Ясно и безоблачно+20°C48 %758 мм3.4 м/с2 %
    03:00Ясно и безоблачно+17°C55 %758 мм2.2 м/с2 %
    06:00Ясно и безоблачно+16°C65 %759 мм2.3 м/с2 %
    09:00Ясно и безоблачно+20°C51 %761 мм1.7 м/с2 %
    12:00Ясно и безоблачно+25°C35 %760 мм2.2 м/с2 %
    15:00Ясно и безоблачно+27°C31 %757 мм2.0 м/с2 %
    18:00Ясно и безоблачно+24°C50 %756 мм2.2 м/с2 %
    21:00Ясно и безоблачно+19°C65 %758 мм2.7 м/с2 %
Мы используем cookies
Соглашаюсь